createdAt,value
2019-05-23T00:01:01.419Z,4.10
2019-05-23T00:03:35.169Z,4.30
2019-05-23T00:06:11.471Z,3.90
2019-05-23T00:08:41.908Z,4.47
2019-05-23T00:11:30.364Z,4.50
2019-05-23T00:14:01.607Z,4.33
2019-05-23T00:16:31.872Z,4.13
2019-05-23T00:19:01.721Z,4.70
2019-05-23T00:21:32.078Z,4.23
2019-05-23T00:24:01.395Z,4.13
2019-05-23T00:26:30.231Z,4.30
2019-05-23T00:29:09.497Z,4.33
2019-05-23T00:31:49.989Z,4.77
2019-05-23T00:34:19.319Z,4.27
2019-05-23T00:36:49.705Z,4.90
2019-05-23T00:39:18.725Z,4.80
2019-05-23T00:41:48.864Z,4.00
2019-05-23T00:44:18.230Z,4.13
2019-05-23T00:46:47.492Z,3.83
2019-05-23T00:49:16.365Z,5.10
2019-05-23T00:51:46.489Z,4.53
2019-05-23T00:54:15.962Z,5.00
2019-05-23T00:56:45.717Z,4.73
2019-05-23T00:59:26.627Z,5.37
2019-05-23T01:01:46.516Z,5.07
2019-05-23T01:04:16.381Z,4.33
2019-05-23T01:06:45.286Z,5.30
2019-05-23T01:09:14.865Z,3.80
2019-05-23T01:11:45.280Z,4.50
2019-05-23T01:14:14.439Z,5.20
2019-05-23T01:16:44.907Z,4.70
2019-05-23T01:19:15.424Z,4.90
2019-05-23T01:21:55.198Z,4.13
2019-05-23T01:24:28.768Z,3.90
2019-05-23T01:26:58.299Z,4.00
2019-05-23T01:29:37.329Z,4.80
2019-05-23T01:32:00.833Z,3.90
2019-05-23T01:34:30.861Z,3.63
2019-05-23T01:37:00.691Z,4.50
2019-05-23T01:39:29.309Z,3.90
2019-05-23T01:41:58.329Z,4.10
2019-05-23T01:44:29.127Z,4.57
2019-05-23T01:46:58.058Z,3.87
2019-05-23T01:49:27.196Z,4.33
2019-05-23T01:51:56.773Z,4.77
2019-05-23T01:54:25.586Z,3.80
2019-05-23T01:56:54.201Z,3.77
2019-05-23T01:59:23.040Z,3.73
2019-05-23T02:01:53.086Z,4.00
2019-05-23T02:04:22.507Z,3.97
2019-05-23T02:06:51.893Z,3.90
2019-05-23T02:09:21.334Z,4.43
2019-05-23T02:11:50.982Z,3.90
2019-05-23T02:14:22.086Z,4.00
2019-05-23T02:16:51.925Z,3.97
2019-05-23T02:19:21.032Z,4.30
2019-05-23T02:21:50.212Z,4.03
2019-05-23T02:24:20.859Z,4.90
2019-05-23T02:26:50.050Z,4.70
2019-05-23T02:29:20.403Z,4.90
2019-05-23T02:31:49.609Z,5.07
2019-05-23T02:34:19.933Z,5.10
2019-05-23T02:36:49.549Z,6.23
2019-05-23T02:39:22.559Z,4.70
2019-05-23T02:42:05.825Z,4.97
2019-05-23T02:44:35.649Z,4.47
2019-05-23T02:47:11.998Z,4.67
2019-05-23T02:49:41.140Z,4.93
2019-05-23T02:52:23.144Z,5.27
2019-05-23T02:54:54.225Z,4.57
2019-05-23T02:57:25.385Z,5.43
2019-05-23T02:59:57.072Z,5.67
2019-05-23T03:02:51.657Z,4.97
2019-05-23T03:05:24.477Z,5.23
2019-05-23T03:07:54.223Z,4.70
2019-05-23T03:10:24.288Z,4.73
2019-05-23T03:12:54.502Z,4.77
2019-05-23T03:15:24.902Z,5.13
2019-05-23T03:17:55.938Z,4.53
2019-05-23T03:20:26.967Z,5.00
2019-05-23T03:23:15.477Z,3.80
2019-05-23T03:25:48.458Z,5.00
2019-05-23T03:28:18.092Z,4.63
2019-05-23T03:30:48.572Z,5.23
2019-05-23T03:33:17.768Z,5.47
2019-05-23T03:36:03.575Z,4.13
2019-05-23T03:38:32.765Z,9.13
2019-05-23T03:41:02.149Z,4.57
2019-05-23T03:43:31.726Z,5.10
2019-05-23T03:46:02.194Z,6.33
2019-05-23T03:48:31.834Z,4.23
2019-05-23T03:51:00.892Z,5.43
2019-05-23T03:53:31.239Z,4.70
2019-05-23T03:56:01.141Z,5.67
2019-05-23T03:58:31.642Z,5.47
2019-05-23T04:01:02.134Z,5.37
2019-05-23T04:03:30.874Z,5.63
2019-05-23T04:05:59.581Z,5.63
2019-05-23T04:08:29.002Z,6.00
2019-05-23T04:10:58.882Z,6.40
2019-05-23T04:13:27.775Z,5.70
2019-05-23T04:15:56.627Z,5.40
2019-05-23T04:18:25.909Z,5.50
2019-05-23T04:20:54.958Z,6.30
2019-05-23T04:23:23.630Z,5.33
2019-05-23T04:25:52.550Z,7.53
2019-05-23T04:28:23.922Z,5.93
2019-05-23T04:30:53.144Z,5.80
2019-05-23T04:33:22.360Z,5.70
2019-05-23T04:35:51.191Z,5.50
2019-05-23T04:38:19.969Z,5.13
2019-05-23T04:40:48.896Z,5.83
2019-05-23T04:43:17.756Z,5.40
2019-05-23T04:45:47.330Z,5.30
2019-05-23T04:48:16.902Z,6.03
2019-05-23T04:50:46.233Z,4.20
2019-05-23T04:53:15.290Z,4.30
2019-05-23T04:55:45.708Z,3.77
2019-05-23T04:58:14.792Z,3.63
2019-05-23T05:00:43.558Z,4.13
2019-05-23T05:03:17.581Z,3.67
2019-05-23T05:05:43.942Z,3.73
2019-05-23T05:08:12.750Z,3.40
2019-05-23T05:10:42.944Z,2.67
2019-05-23T05:13:12.229Z,2.50
2019-05-23T05:15:41.112Z,3.63
2019-05-23T05:18:11.112Z,2.90
2019-05-23T05:20:40.461Z,2.47
2019-05-23T05:23:09.284Z,2.47
2019-05-23T05:25:37.988Z,3.47
2019-05-23T05:28:06.833Z,2.90
2019-05-23T05:30:35.922Z,2.47
2019-05-23T05:33:04.699Z,2.47
2019-05-23T05:35:33.559Z,2.40
2019-05-23T05:38:02.820Z,2.40
2019-05-23T05:40:31.725Z,2.07
2019-05-23T05:43:01.227Z,2.47
2019-05-23T05:45:30.610Z,2.00
2019-05-23T05:47:59.242Z,2.00
2019-05-23T05:50:30.543Z,2.33
2019-05-23T05:52:59.679Z,2.40
2019-05-23T05:55:28.297Z,1.93
2019-05-23T05:57:58.567Z,1.90
2019-05-23T06:00:29.177Z,4.60
2019-05-23T06:03:05.194Z,7.43
2019-05-23T06:05:34.816Z,1.80
2019-05-23T06:08:05.550Z,2.00
2019-05-23T06:10:35.132Z,2.73
2019-05-23T06:13:06.637Z,2.90
2019-05-23T06:15:35.438Z,4.23
2019-05-23T06:18:05.266Z,3.87
2019-05-23T06:20:35.065Z,2.80
2019-05-23T06:23:05.373Z,1.73
2019-05-23T06:25:34.183Z,2.33
2019-05-23T06:28:03.162Z,1.50
2019-05-23T06:30:33.288Z,1.53
2019-05-23T06:33:21.334Z,1.93
2019-05-23T06:35:33.117Z,1.80
2019-05-23T06:38:02.755Z,1.50
2019-05-23T06:40:32.504Z,1.83
2019-05-23T06:43:01.477Z,1.93
2019-05-23T06:45:31.094Z,1.70
2019-05-23T06:47:59.799Z,1.87
2019-05-23T06:50:29.098Z,1.37
2019-05-23T06:52:57.856Z,1.30
2019-05-23T06:55:26.698Z,1.50
2019-05-23T06:57:55.728Z,2.00
2019-05-23T07:00:28.191Z,1.60
2019-05-23T07:02:56.869Z,1.53
2019-05-23T07:05:28.890Z,1.33
2019-05-23T07:07:57.865Z,1.57
2019-05-23T07:10:27.701Z,2.13
2019-05-23T07:12:56.449Z,1.47
2019-05-23T07:15:26.898Z,0.97
2019-05-23T07:17:57.576Z,3.63
2019-05-23T07:20:26.346Z,0.80
2019-05-23T07:22:55.296Z,1.47
2019-05-23T07:25:24.538Z,1.30
2019-05-23T07:27:53.621Z,1.40
2019-05-23T07:30:25.177Z,1.10
2019-05-23T07:32:53.969Z,1.60
2019-05-23T07:35:23.784Z,1.17
2019-05-23T07:37:52.361Z,0.93
2019-05-23T07:40:22.837Z,1.03
2019-05-23T07:42:51.451Z,1.20
2019-05-23T07:45:22.006Z,1.10
2019-05-23T07:47:50.595Z,1.10
2019-05-23T07:50:19.321Z,1.20
2019-05-23T07:52:48.172Z,0.90
2019-05-23T07:55:27.937Z,1.00
2019-05-23T07:57:56.963Z,0.90
2019-05-23T08:00:33.203Z,1.83
2019-05-23T08:03:04.112Z,1.30
2019-05-23T08:05:33.786Z,1.17
2019-05-23T08:08:02.863Z,1.43
2019-05-23T08:10:34.178Z,2.70
2019-05-23T08:13:02.770Z,1.00
2019-05-23T08:15:31.939Z,1.00
2019-05-23T08:18:00.597Z,1.70
2019-05-23T08:20:29.434Z,1.33
2019-05-23T08:22:58.380Z,1.20
2019-05-23T08:25:27.566Z,1.13
2019-05-23T08:27:56.151Z,1.50
2019-05-23T08:30:24.881Z,1.10
2019-05-23T08:32:54.631Z,1.93
2019-05-23T08:35:23.621Z,1.60
2019-05-23T08:37:52.466Z,1.17
2019-05-23T08:40:22.678Z,1.30
2019-05-23T08:42:52.031Z,3.50
2019-05-23T08:45:20.999Z,1.23
2019-05-23T08:47:49.778Z,3.47
2019-05-23T08:50:21.071Z,1.40
2019-05-23T08:52:50.359Z,1.10
2019-05-23T08:55:24.859Z,0.90
2019-05-23T08:57:54.985Z,1.47
2019-05-23T09:00:26.149Z,1.07
2019-05-23T09:02:58.495Z,1.67
2019-05-23T09:05:27.141Z,1.10
2019-05-23T09:07:55.957Z,1.30
2019-05-23T09:10:25.916Z,1.30
2019-05-23T09:12:54.843Z,1.17
2019-05-23T09:15:24.535Z,1.43
2019-05-23T09:17:54.283Z,1.20
2019-05-23T09:20:23.261Z,0.80
2019-05-23T09:22:51.991Z,3.83
2019-05-23T09:25:21.474Z,14.27
2019-05-23T09:27:51.376Z,9.63
2019-05-23T09:30:22.170Z,1.50
2019-05-23T09:32:51.107Z,1.07
2019-05-23T09:35:22.139Z,1.40
2019-05-23T09:37:50.475Z,1.47
2019-05-23T09:40:19.581Z,1.00
2019-05-23T09:42:48.175Z,1.40
2019-05-23T09:45:17.987Z,1.80
2019-05-23T09:47:50.989Z,1.53
2019-05-23T09:50:19.423Z,0.90
2019-05-23T09:52:49.430Z,1.30
2019-05-23T09:55:18.715Z,1.50
2019-05-23T09:57:47.385Z,1.03
2019-05-23T10:00:22.111Z,1.40
2019-05-23T10:02:51.045Z,1.43
2019-05-23T10:05:40.301Z,0.97
2019-05-23T10:07:50.112Z,1.07
2019-05-23T10:10:19.106Z,1.00
2019-05-23T10:12:47.766Z,0.80
2019-05-23T10:15:25.170Z,0.80
2019-05-23T10:17:53.744Z,1.10
2019-05-23T10:20:25.596Z,0.67
2019-05-23T10:22:54.247Z,0.83
2019-05-23T10:25:22.894Z,1.37
2019-05-23T10:27:51.484Z,0.93
2019-05-23T10:30:20.999Z,0.90
2019-05-23T10:32:49.591Z,0.97
2019-05-23T10:35:18.639Z,1.50
2019-05-23T10:37:47.307Z,1.50
2019-05-23T10:40:17.019Z,1.23
2019-05-23T10:42:45.643Z,1.33
2019-05-23T10:45:14.599Z,1.30
2019-05-23T10:47:43.457Z,1.40
2019-05-23T10:50:12.444Z,5.80
2019-05-23T10:52:41.026Z,4.57
2019-05-23T10:55:09.939Z,1.73
2019-05-23T10:57:38.523Z,2.00
2019-05-23T11:00:10.963Z,1.87
2019-05-23T11:02:40.575Z,1.37
2019-05-23T11:05:13.642Z,1.23
2019-05-23T11:07:42.602Z,1.90
2019-05-23T11:10:11.823Z,1.90
2019-05-23T11:12:41.716Z,1.20
2019-05-23T11:15:10.620Z,1.60
2019-05-23T11:17:39.655Z,1.80
2019-05-23T11:20:13.158Z,1.77
2019-05-23T11:22:42.584Z,1.87
2019-05-23T11:25:13.298Z,2.40
2019-05-23T11:27:42.531Z,2.13
2019-05-23T11:30:16.887Z,2.70
2019-05-23T11:32:45.686Z,2.73
2019-05-23T11:35:14.472Z,3.40
2019-05-23T11:37:43.043Z,2.50
2019-05-23T11:40:13.318Z,2.13
2019-05-23T11:42:42.052Z,2.27
2019-05-23T11:45:11.491Z,3.83
2019-05-23T11:47:40.421Z,14.53
2019-05-23T11:50:09.445Z,4.83
2019-05-23T11:52:38.329Z,3.17
2019-05-23T11:55:07.622Z,6.53
2019-05-23T11:57:38.156Z,3.33
2019-05-23T12:00:10.175Z,2.80
2019-05-23T12:02:43.691Z,2.80
2019-05-23T12:05:20.860Z,2.63
2019-05-23T12:07:50.153Z,4.00
2019-05-23T12:10:18.973Z,5.60
2019-05-23T12:12:47.616Z,2.60
2019-05-23T12:15:24.364Z,5.70
2019-05-23T12:17:53.354Z,4.70
2019-05-23T12:20:22.493Z,6.57
2019-05-23T12:22:51.293Z,9.53
2019-05-23T12:25:23.006Z,2.93
2019-05-23T12:27:50.387Z,2.03
2019-05-23T12:30:20.199Z,2.57
2019-05-23T12:32:48.898Z,2.07
2019-05-23T12:35:17.635Z,2.13
2019-05-23T12:37:46.301Z,2.53
2019-05-23T12:40:15.410Z,3.03
2019-05-23T12:42:44.062Z,2.50
2019-05-23T12:45:14.375Z,1.93
2019-05-23T12:47:44.688Z,2.10
2019-05-23T12:50:15.246Z,2.17
2019-05-23T12:52:44.011Z,2.50
2019-05-23T12:55:12.920Z,2.40
2019-05-23T12:57:41.807Z,2.30
2019-05-23T13:00:12.213Z,2.07
2019-05-23T13:02:41.045Z,1.60
2019-05-23T13:05:10.241Z,2.27
2019-05-23T13:07:38.996Z,1.80
2019-05-23T13:10:07.987Z,1.40
2019-05-23T13:12:36.611Z,1.67
2019-05-23T13:15:07.274Z,1.50
2019-05-23T13:17:36.006Z,1.40
2019-05-23T13:20:07.527Z,1.40
2019-05-23T13:22:36.513Z,1.70
2019-05-23T13:25:06.819Z,3.70
2019-05-23T13:27:35.967Z,6.90
2019-05-23T13:30:07.224Z,5.53
2019-05-23T13:32:36.193Z,1.73
2019-05-23T13:35:06.939Z,2.03
2019-05-23T13:37:51.780Z,1.87
2019-05-23T13:40:07.378Z,1.63
2019-05-23T13:42:36.001Z,1.67
2019-05-23T13:45:06.754Z,1.60
2019-05-23T13:47:35.488Z,1.83
2019-05-23T13:50:06.235Z,2.37
2019-05-23T13:52:35.269Z,1.87
2019-05-23T13:55:06.628Z,1.90
2019-05-23T13:57:36.438Z,2.40
2019-05-23T14:00:09.752Z,2.00
2019-05-23T14:02:38.495Z,1.53
2019-05-23T14:05:08.780Z,1.80
2019-05-23T14:07:38.463Z,1.80
2019-05-23T14:10:08.447Z,1.67
2019-05-23T14:12:37.115Z,1.33
2019-05-23T14:15:07.785Z,2.37
2019-05-23T14:17:38.103Z,1.63
2019-05-23T14:20:07.440Z,1.73
2019-05-23T14:22:40.790Z,1.27
2019-05-23T14:25:09.687Z,1.87
2019-05-23T14:27:45.870Z,1.50
2019-05-23T14:30:32.557Z,1.83
2019-05-23T14:33:20.865Z,2.30
2019-05-23T14:35:51.321Z,6.07
2019-05-23T14:38:30.205Z,19.40
2019-05-23T14:40:50.266Z,34.80
2019-05-23T14:43:26.094Z,2.93
2019-05-23T14:46:11.568Z,1.90
2019-05-23T14:48:53.627Z,1.80
2019-05-23T14:51:26.992Z,1.70
2019-05-23T14:54:06.296Z,1.30
2019-05-23T14:56:41.749Z,1.50
2019-05-23T14:59:10.344Z,3.37
2019-05-23T15:01:38.936Z,2.00
2019-05-23T15:04:07.630Z,2.00
2019-05-23T15:06:36.221Z,1.60
2019-05-23T15:09:09.167Z,6.40
2019-05-23T15:11:38.396Z,1.70
2019-05-23T15:14:07.287Z,1.87
2019-05-23T15:16:36.293Z,1.93
2019-05-23T15:19:05.536Z,1.60
2019-05-23T15:21:34.295Z,1.67
2019-05-23T15:24:02.966Z,1.43
2019-05-23T15:26:31.765Z,1.37
2019-05-23T15:29:00.532Z,1.50
2019-05-23T15:31:29.516Z,1.30
2019-05-23T15:33:58.174Z,1.30
2019-05-23T15:36:26.732Z,1.70
2019-05-23T15:39:08.802Z,1.80
2019-05-23T15:41:25.757Z,1.57
2019-05-23T15:43:54.598Z,1.77
2019-05-23T15:46:23.258Z,1.50
2019-05-23T15:48:51.842Z,1.57
2019-05-23T15:51:24.929Z,1.23
2019-05-23T15:54:03.802Z,1.43
2019-05-23T15:56:36.830Z,1.37
2019-05-23T15:59:25.621Z,1.50
2019-05-23T16:02:07.898Z,1.00
2019-05-23T16:04:36.917Z,1.10
2019-05-23T16:07:06.517Z,1.17
2019-05-23T16:09:35.265Z,2.10
2019-05-23T16:12:04.746Z,1.27
2019-05-23T16:14:33.384Z,1.13
2019-05-23T16:17:02.043Z,1.50
2019-05-23T16:19:30.652Z,1.20
2019-05-23T16:21:59.226Z,1.83
2019-05-23T16:24:28.035Z,2.23
2019-05-23T16:26:57.087Z,2.10
2019-05-23T16:29:26.381Z,1.20
2019-05-23T16:31:55.238Z,1.20
2019-05-23T16:34:23.867Z,1.20
2019-05-23T16:36:52.431Z,1.30
2019-05-23T16:39:21.078Z,2.07
2019-05-23T16:41:49.685Z,2.00
2019-05-23T16:44:18.443Z,1.33
2019-05-23T16:46:47.096Z,1.90
2019-05-23T16:49:15.942Z,1.60
2019-05-23T16:51:44.510Z,1.43
2019-05-23T16:54:14.252Z,1.60
2019-05-23T16:56:44.655Z,1.00
2019-05-23T16:59:14.867Z,1.70
2019-05-23T17:01:56.248Z,2.23
2019-05-23T17:04:25.310Z,2.70
2019-05-23T17:07:01.454Z,1.73
2019-05-23T17:09:37.526Z,1.33
2019-05-23T17:12:24.021Z,2.60
2019-05-23T17:15:09.726Z,2.33
2019-05-23T17:18:02.460Z,1.67
2019-05-23T17:20:33.514Z,3.23
2019-05-23T17:23:06.220Z,2.17
2019-05-23T17:25:36.431Z,1.53
2019-05-23T17:28:06.948Z,1.70
2019-05-23T17:30:37.904Z,1.60
2019-05-23T17:33:07.986Z,1.40
2019-05-23T17:35:36.989Z,1.77
2019-05-23T17:38:05.851Z,1.57
2019-05-23T17:40:34.666Z,2.27
2019-05-23T17:43:03.373Z,1.77
2019-05-23T17:45:32.068Z,1.23
2019-05-23T17:48:00.985Z,2.30
2019-05-23T17:50:29.982Z,1.63
2019-05-23T17:52:58.668Z,2.03
2019-05-23T17:55:28.104Z,1.40
2019-05-23T17:57:57.134Z,1.77
2019-05-23T18:00:27.663Z,3.03
2019-05-23T18:02:56.496Z,2.00
2019-05-23T18:05:25.585Z,1.70
2019-05-23T18:07:54.307Z,1.90
2019-05-23T18:10:22.961Z,2.03
2019-05-23T18:12:51.938Z,2.00
2019-05-23T18:15:20.882Z,2.00
2019-05-23T18:17:49.610Z,1.80
2019-05-23T18:20:18.742Z,2.23
2019-05-23T18:22:47.409Z,1.57
2019-05-23T18:25:18.299Z,1.67
2019-05-23T18:27:47.603Z,1.73
2019-05-23T18:30:34.677Z,2.03
2019-05-23T18:33:05.189Z,1.77
2019-05-23T18:35:34.442Z,2.40
2019-05-23T18:38:03.622Z,3.00
2019-05-23T18:40:33.157Z,3.37
2019-05-23T18:43:01.831Z,3.27
2019-05-23T18:45:32.518Z,2.27
2019-05-23T18:48:01.206Z,2.57
2019-05-23T18:50:30.795Z,2.73
2019-05-23T18:52:59.539Z,4.30
2019-05-23T18:55:29.355Z,2.70
2019-05-23T18:57:58.451Z,2.90
2019-05-23T19:00:47.170Z,2.40
2019-05-23T19:03:15.995Z,2.57
2019-05-23T19:05:44.563Z,2.20
2019-05-23T19:08:13.390Z,3.43
2019-05-23T19:10:42.451Z,3.10
2019-05-23T19:13:11.125Z,4.57
2019-05-23T19:15:40.033Z,5.00
2019-05-23T19:18:09.491Z,4.07
2019-05-23T19:20:39.012Z,4.30
2019-05-23T19:23:08.614Z,4.30
2019-05-23T19:25:37.450Z,3.17
2019-05-23T19:28:07.794Z,5.43
2019-05-23T19:30:36.641Z,2.80
2019-05-23T19:33:05.564Z,4.70
2019-05-23T19:35:34.550Z,3.37
2019-05-23T19:38:03.196Z,4.50
2019-05-23T19:40:32.124Z,7.40
2019-05-23T19:43:01.053Z,4.00
2019-05-23T19:45:30.653Z,6.23
2019-05-23T19:47:59.243Z,4.80
2019-05-23T19:50:29.557Z,5.40
2019-05-23T19:52:58.326Z,4.90
2019-05-23T19:55:27.951Z,5.90
2019-05-23T19:57:56.718Z,4.50
2019-05-23T20:00:27.141Z,4.87
2019-05-23T20:03:03.236Z,5.80
2019-05-23T20:05:31.951Z,5.43
2019-05-23T20:08:00.618Z,6.30
2019-05-23T20:10:29.568Z,4.70
2019-05-23T20:12:58.168Z,6.50
2019-05-23T20:15:26.982Z,19.50
2019-05-23T20:17:57.648Z,9.37
2019-05-23T20:20:26.487Z,15.90
2019-05-23T20:22:55.385Z,20.97
2019-05-23T20:25:24.531Z,16.90
2019-05-23T20:27:53.505Z,9.17
2019-05-23T20:30:45.351Z,10.20
2019-05-23T20:33:14.721Z,9.30
2019-05-23T20:35:43.536Z,7.23
2019-05-23T20:38:12.307Z,6.27
2019-05-23T20:40:40.932Z,8.00
2019-05-23T20:43:10.052Z,6.00
2019-05-23T20:45:38.695Z,5.97
2019-05-23T20:48:07.914Z,5.50
2019-05-23T20:50:36.648Z,4.33
2019-05-23T20:53:05.287Z,4.70
2019-05-23T20:55:34.553Z,6.60
2019-05-23T20:58:04.266Z,5.07
2019-05-23T21:00:34.722Z,5.53
2019-05-23T21:03:04.906Z,3.70
2019-05-23T21:05:33.604Z,5.30
2019-05-23T21:08:02.238Z,4.60
2019-05-23T21:10:39.688Z,3.93
2019-05-23T21:13:08.451Z,4.33
2019-05-23T21:15:37.026Z,4.40
2019-05-23T21:18:06.237Z,5.00
2019-05-23T21:20:34.894Z,4.50
2019-05-23T21:23:03.545Z,5.50
2019-05-23T21:25:33.451Z,5.47
2019-05-23T21:28:02.195Z,4.50
2019-05-23T21:30:30.762Z,4.63
2019-05-23T21:32:59.371Z,5.13
2019-05-23T21:35:28.290Z,4.10
2019-05-23T21:37:56.875Z,4.43
2019-05-23T21:40:37.543Z,4.07
2019-05-23T21:43:06.372Z,4.60
2019-05-23T21:45:35.215Z,4.93
2019-05-23T21:48:04.240Z,3.70
2019-05-23T21:50:33.175Z,4.37
2019-05-23T21:53:02.278Z,3.17
2019-05-23T21:55:41.655Z,4.10
2019-05-23T21:58:12.275Z,4.37
2019-05-23T22:01:06.853Z,4.13
2019-05-23T22:03:53.162Z,5.27
2019-05-23T22:06:24.922Z,5.40
2019-05-23T22:08:53.947Z,5.13
2019-05-23T22:11:22.762Z,4.93
2019-05-23T22:13:51.429Z,6.10
2019-05-23T22:16:20.083Z,5.00
2019-05-23T22:18:48.709Z,6.10
2019-05-23T22:21:17.925Z,4.63
2019-05-23T22:23:46.958Z,4.77
2019-05-23T22:26:15.618Z,4.50
2019-05-23T22:28:44.530Z,4.90
2019-05-23T22:31:13.391Z,4.83
2019-05-23T22:33:43.798Z,4.87
2019-05-23T22:36:14.129Z,4.40
2019-05-23T22:38:42.732Z,6.00
2019-05-23T22:41:11.326Z,4.90
2019-05-23T22:43:40.065Z,4.10
2019-05-23T22:46:09.305Z,4.83
2019-05-23T22:48:38.257Z,4.57
2019-05-23T22:51:06.844Z,4.40
2019-05-23T22:53:35.422Z,4.53
2019-05-23T22:56:04.226Z,4.20
2019-05-23T22:58:32.797Z,4.77
2019-05-23T23:01:01.542Z,4.57
2019-05-23T23:03:30.130Z,4.90
2019-05-23T23:05:58.782Z,4.60
2019-05-23T23:08:28.219Z,4.03
2019-05-23T23:10:56.795Z,4.83
2019-05-23T23:13:38.289Z,4.93
2019-05-23T23:15:56.693Z,4.87
2019-05-23T23:18:25.264Z,4.80
2019-05-23T23:20:53.849Z,4.50
2019-05-23T23:23:22.774Z,4.47
2019-05-23T23:25:51.343Z,4.20
2019-05-23T23:28:19.964Z,4.40
2019-05-23T23:30:50.202Z,5.00
2019-05-23T23:33:18.858Z,4.87
2019-05-23T23:35:47.500Z,6.43
2019-05-23T23:38:16.271Z,4.60
2019-05-23T23:40:44.893Z,4.60
2019-05-23T23:43:13.490Z,4.43
2019-05-23T23:46:00.301Z,4.70
2019-05-23T23:48:46.806Z,4.80
2019-05-23T23:51:33.426Z,3.93
2019-05-23T23:54:20.238Z,4.40
2019-05-23T23:57:06.611Z,4.40
2019-05-23T23:59:34.502Z,4.27
